Time;durP1;ratioP1;P1;durP2;ratioP2;P2;SDS_P1;SDS_P2;PMS_P1;PMS_P2;Temp;Humidity;BMP_temperature;BMP_pressure;BME280_temperature;BME280_humidity;BME280_pressure;Samples;Min_cycle;Max_cycle;Signal;HPM_P1;HPM_P2
2022/12/04 00:00:12;;;;;;;14.82;10.98;;;;;;;;;;4829419;29;20050;-68
2022/12/04 00:02:39;;;;;;;15.60;11.38;;;;;;;;;;4829162;29;20079;-68
2022/12/04 00:05:06;;;;;;;15.82;11.38;;;;;;;;;;4827642;29;20517;-68
2022/12/04 00:07:32;;;;;;;13.65;10.70;;;;;;;;;;4826530;29;20513;-68
2022/12/04 00:09:58;;;;;;;17.20;10.40;;;;;;;;;;4828616;29;20057;-68
2022/12/04 00:12:24;;;;;;;17.10;11.35;;;;;;;;;;4827747;29;20103;-68
2022/12/04 00:14:50;;;;;;;17.85;11.73;;;;;;;;;;4828315;29;20131;-68
2022/12/04 00:17:17;;;;;;;15.50;11.43;;;;;;;;;;4828683;29;20046;-68
2022/12/04 00:19:43;;;;;;;16.10;11.88;;;;;;;;;;4828518;29;20088;-68
2022/12/04 00:22:09;;;;;;;15.30;11.32;;;;;;;;;;4828255;29;20506;-68
2022/12/04 00:24:35;;;;;;;14.38;10.43;;;;;;;;;;4828398;29;20054;-68
2022/12/04 00:27:01;;;;;;;36.03;23.95;;;;;;;;;;4828811;29;20066;-68
2022/12/04 00:29:28;;;;;;;19.38;14.05;;;;;;;;;;4828354;29;20038;-68
2022/12/04 00:31:54;;;;;;;14.20;10.07;;;;;;;;;;4828460;29;20093;-68
2022/12/04 00:34:21;;;;;;;15.45;10.93;;;;;;;;;;4828227;29;20050;-68
2022/12/04 00:36:47;;;;;;;17.90;12.55;;;;;;;;;;4828461;29;20042;-68
2022/12/04 00:39:14;;;;;;;15.55;11.18;;;;;;;;;;4828452;29;20054;-68
2022/12/04 00:41:40;;;;;;;14.90;9.77;;;;;;;;;;4828542;29;20053;-68
2022/12/04 00:44:06;;;;;;;13.43;8.90;;;;;;;;;;4828101;29;20069;-68
2022/12/04 00:46:32;;;;;;;18.35;10.10;;;;;;;;;;4828183;29;20054;-68
2022/12/04 00:49:01;;;;;;;16.85;10.30;;;;;;;;;;4827929;29;20041;-68
2022/12/04 00:51:28;;;;;;;12.30;8.35;;;;;;;;;;4828494;29;20121;-68
2022/12/04 00:53:54;;;;;;;20.58;12.50;;;;;;;;;;4827936;29;20046;-68
2022/12/04 00:56:21;;;;;;;13.10;9.40;;;;;;;;;;4828522;29;20050;-68
2022/12/04 00:58:50;;;;;;;12.73;9.32;;;;;;;;;;4827844;29;20383;-68
2022/12/04 01:01:17;;;;;;;14.32;11.27;;;;;;;;;;4828496;29;20530;-67
2022/12/04 01:03:43;;;;;;;16.55;11.73;;;;;;;;;;4828028;29;20089;-68
2022/12/04 01:06:23;;;;;;;14.75;9.60;;;;;;;;;;4828010;29;20054;-67
2022/12/04 01:08:50;;;;;;;15.40;11.40;;;;;;;;;;4827358;29;20048;-68
2022/12/04 01:11:16;;;;;;;13.93;9.27;;;;;;;;;;4827994;29;20055;-68
2022/12/04 01:13:43;;;;;;;15.20;11.25;;;;;;;;;;4827576;29;20107;-68
2022/12/04 01:16:09;;;;;;;11.40;8.23;;;;;;;;;;4827600;29;20046;-68
2022/12/04 01:18:35;;;;;;;12.27;9.55;;;;;;;;;;4827591;29;20499;-68
2022/12/04 01:21:01;;;;;;;10.93;7.97;;;;;;;;;;4827491;29;20406;-68
2022/12/04 01:23:27;;;;;;;12.05;8.75;;;;;;;;;;4828166;29;20525;-68
2022/12/04 01:25:54;;;;;;;12.57;8.70;;;;;;;;;;4827421;29;20046;-68
2022/12/04 01:28:21;;;;;;;12.57;8.30;;;;;;;;;;4827449;29;20507;-68
2022/12/04 01:31:04;;;;;;;12.00;8.93;;;;;;;;;;4827617;29;20053;-68
2022/12/04 01:33:31;;;;;;;14.57;9.32;;;;;;;;;;4827851;29;20069;-68
2022/12/04 01:35:58;;;;;;;12.90;8.45;;;;;;;;;;4827233;29;20038;-68
2022/12/04 01:38:24;;;;;;;11.80;8.88;;;;;;;;;;4827342;29;20034;-68
2022/12/04 01:40:51;;;;;;;13.38;9.43;;;;;;;;;;4827543;29;20050;-68
2022/12/04 01:43:17;;;;;;;10.65;8.95;;;;;;;;;;4827630;29;20129;-68
2022/12/04 01:45:46;;;;;;;12.48;8.55;;;;;;;;;;4827315;29;20057;-68
2022/12/04 01:48:17;;;;;;;9.52;8.30;;;;;;;;;;4828016;29;20047;-68
2022/12/04 01:50:44;;;;;;;13.60;9.00;;;;;;;;;;4827817;29;20043;-68
2022/12/04 01:53:10;;;;;;;13.00;7.65;;;;;;;;;;4827221;29;20105;-68
2022/12/04 01:55:36;;;;;;;9.75;7.82;;;;;;;;;;4826996;29;20071;-68
2022/12/04 01:58:02;;;;;;;9.80;7.95;;;;;;;;;;4827254;29;20077;-67
2022/12/04 02:00:30;;;;;;;10.63;8.68;;;;;;;;;;4827222;29;20050;-67
2022/12/04 02:02:56;;;;;;;11.85;8.40;;;;;;;;;;4827114;29;20376;-68
2022/12/04 02:05:22;;;;;;;10.15;8.20;;;;;;;;;;4827133;29;20038;-68
2022/12/04 02:07:50;;;;;;;11.73;9.73;;;;;;;;;;4826926;29;20070;-68
2022/12/04 02:10:26;;;;;;;12.35;9.32;;;;;;;;;;4827067;29;20096;-68
2022/12/04 02:12:54;;;;;;;11.05;8.80;;;;;;;;;;4827221;29;20054;-68
2022/12/04 02:15:22;;;;;;;12.77;9.73;;;;;;;;;;4827000;29;20045;-68
2022/12/04 02:17:49;;;;;;;17.08;10.35;;;;;;;;;;4826931;29;20533;-68
2022/12/04 02:20:29;;;;;;;15.45;10.40;;;;;;;;;;4825668;29;20046;-68
2022/12/04 02:23:05;;;;;;;15.38;11.35;;;;;;;;;;4826939;29;20081;-68
2022/12/04 02:25:39;;;;;;;13.85;9.38;;;;;;;;;;4827112;29;20058;-68
2022/12/04 02:28:14;;;;;;;12.13;9.07;;;;;;;;;;4826832;29;20127;-67
2022/12/04 02:30:42;;;;;;;12.90;9.75;;;;;;;;;;4827033;29;20512;-68
2022/12/04 02:33:08;;;;;;;13.75;9.93;;;;;;;;;;4826410;29;20510;-68
2022/12/04 02:35:37;;;;;;;11.43;8.63;;;;;;;;;;4826640;29;20053;-68
2022/12/04 02:38:05;;;;;;;12.50;8.60;;;;;;;;;;4820317;29;20038;-68
2022/12/04 02:40:38;;;;;;;11.98;8.57;;;;;;;;;;4807573;29;20139;-68
2022/12/04 02:43:10;;;;;;;10.98;8.05;;;;;;;;;;4808362;29;20130;-68
2022/12/04 02:45:47;;;;;;;12.82;9.60;;;;;;;;;;4807836;29;20499;-68
2022/12/04 02:48:16;;;;;;;16.35;10.52;;;;;;;;;;4807085;29;20043;-68
2022/12/04 02:50:43;;;;;;;26.63;15.18;;;;;;;;;;4807133;29;20158;-67
2022/12/04 02:53:14;;;;;;;29.13;18.90;;;;;;;;;;4807593;29;20059;-68
2022/12/04 02:55:43;;;;;;;23.27;15.80;;;;;;;;;;4808508;29;20119;-68
2022/12/04 02:58:12;;;;;;;19.98;13.20;;;;;;;;;;4807524;29;20046;-68
2022/12/04 03:00:40;;;;;;;17.70;11.30;;;;;;;;;;4807971;29;20115;-68
2022/12/04 03:03:09;;;;;;;16.60;10.25;;;;;;;;;;4808031;29;20055;-68
2022/12/04 03:05:39;;;;;;;11.70;9.10;;;;;;;;;;4807323;29;20034;-68
2022/12/04 03:08:08;;;;;;;10.83;8.60;;;;;;;;;;4807287;29;20051;-68
2022/12/04 03:10:36;;;;;;;8.80;7.90;;;;;;;;;;4807895;29;20053;-68
2022/12/04 03:13:05;;;;;;;9.45;7.40;;;;;;;;;;4807351;29;20054;-68
2022/12/04 03:15:40;;;;;;;9.25;7.05;;;;;;;;;;4807283;29;20588;-68
2022/12/04 03:18:39;;;;;;;11.77;8.23;;;;;;;;;;4807581;29;20046;-68
2022/12/04 03:21:09;;;;;;;9.35;7.75;;;;;;;;;;4776922;29;20384;-68
2022/12/04 03:23:35;;;;;;;;;;;;;;;;;;4807588;29;20055;-68
2022/12/04 03:26:23;;;;;;;10.15;7.10;;;;;;;;;;4807205;29;20422;-68
2022/12/04 03:28:52;;;;;;;9.95;7.78;;;;;;;;;;4807764;29;20090;-68
2022/12/04 03:31:22;;;;;;;8.60;7.45;;;;;;;;;;4807530;29;20514;-68
2022/12/04 03:33:49;;;;;;;10.05;8.50;;;;;;;;;;4807345;29;20099;-68
2022/12/04 03:36:17;;;;;;;11.68;8.63;;;;;;;;;;4807561;29;20086;-68
2022/12/04 03:39:02;;;;;;;10.02;8.00;;;;;;;;;;4807206;29;20099;-68
2022/12/04 03:41:47;;;;;;;10.63;7.30;;;;;;;;;;4806974;29;20051;-68
2022/12/04 03:44:32;;;;;;;11.45;7.82;;;;;;;;;;4807335;29;20050;-68
2022/12/04 03:47:09;;;;;;;14.13;7.93;;;;;;;;;;4807670;29;20100;-67
2022/12/04 03:49:42;;;;;;;13.27;8.45;;;;;;;;;;4807784;29;20126;-68
2022/12/04 03:52:21;;;;;;;9.63;8.15;;;;;;;;;;4807428;29;20081;-68
2022/12/04 03:55:08;;;;;;;10.38;7.90;;;;;;;;;;4807517;29;20054;-67
2022/12/04 03:57:39;;;;;;;10.80;7.32;;;;;;;;;;4807394;29;20065;-67
2022/12/04 04:00:05;;;;;;;;;;;;;;;;;;4808493;29;20081;-67
2022/12/04 04:02:34;;;;;;;8.60;7.70;;;;;;;;;;4807212;29;19924;-68
2022/12/04 04:05:01;;;;;;;10.77;7.80;;;;;;;;;;4807687;29;20046;-68
2022/12/04 04:07:33;;;;;;;10.00;6.72;;;;;;;;;;4807035;29;20507;-68
2022/12/04 04:10:02;;;;;;;8.60;7.28;;;;;;;;;;4807379;29;20133;-68
2022/12/04 04:12:32;;;;;;;8.50;6.30;;;;;;;;;;4807837;29;20067;-68
2022/12/04 04:26:25;;;;;;;7.95;6.90;;;;;;;;;;4779013;29;20479;-68
2022/12/04 04:28:51;;;;;;;8.02;6.90;;;;;;;;;;4806948;29;20518;-67
2022/12/04 04:31:17;;;;;;;7.40;6.60;;;;;;;;;;4807148;29;20043;-67
2022/12/04 04:33:49;;;;;;;7.50;6.25;;;;;;;;;;4807013;29;20046;-67
2022/12/04 04:36:20;;;;;;;7.10;6.20;;;;;;;;;;4807173;29;20085;-68
2022/12/04 04:38:53;;;;;;;9.25;6.88;;;;;;;;;;4807165;29;20050;-68
2022/12/04 04:41:22;;;;;;;8.85;6.15;;;;;;;;;;4807068;29;20047;-67
2022/12/04 04:43:51;;;;;;;7.15;6.05;;;;;;;;;;4808217;29;20050;-67
2022/12/04 04:46:21;;;;;;;11.30;7.07;;;;;;;;;;4809864;29;20062;-68
2022/12/04 04:48:48;;;;;;;10.30;7.00;;;;;;;;;;4809859;29;20053;-68
2022/12/04 04:51:15;;;;;;;8.95;7.55;;;;;;;;;;4810137;29;20050;-68
2022/12/04 04:53:49;;;;;;;8.98;7.35;;;;;;;;;;4809711;29;20050;-68
2022/12/04 04:56:15;;;;;;;8.45;7.20;;;;;;;;;;4809609;29;20047;-67
2022/12/04 04:58:42;;;;;;;8.70;6.57;;;;;;;;;;4810379;29;20049;-67
2022/12/04 05:01:09;;;;;;;8.20;6.68;;;;;;;;;;4809818;29;20047;-67
2022/12/04 05:03:36;;;;;;;9.63;6.60;;;;;;;;;;4809863;29;20047;-67
2022/12/04 05:06:02;;;;;;;10.05;6.70;;;;;;;;;;4810141;29;20047;-67
2022/12/04 05:08:28;;;;;;;7.05;6.35;;;;;;;;;;4809562;29;20530;-67
2022/12/04 05:10:54;;;;;;;8.40;6.60;;;;;;;;;;4809610;29;20043;-67
2022/12/04 05:13:21;;;;;;;7.65;6.60;;;;;;;;;;4810115;29;20051;-68
2022/12/04 05:16:00;;;;;;;8.02;6.28;;;;;;;;;;4809763;29;20103;-67
2022/12/04 05:18:27;;;;;;;8.43;6.07;;;;;;;;;;4809788;29;20046;-67
2022/12/04 05:20:53;;;;;;;8.25;6.40;;;;;;;;;;4809228;29;20050;-68
2022/12/04 05:23:19;;;;;;;8.05;6.57;;;;;;;;;;4809652;29;20138;-68
2022/12/04 05:25:45;;;;;;;10.07;6.18;;;;;;;;;;4809575;29;20129;-68
2022/12/04 05:28:12;;;;;;;8.30;6.32;;;;;;;;;;4809385;29;20078;-68
2022/12/04 05:30:38;;;;;;;9.23;6.55;;;;;;;;;;4809344;29;20102;-68
2022/12/04 05:33:04;;;;;;;8.73;6.75;;;;;;;;;;4809479;29;20579;-67
2022/12/04 05:35:30;;;;;;;8.88;5.95;;;;;;;;;;4809237;29;20042;-67
2022/12/04 05:37:56;;;;;;;7.32;6.38;;;;;;;;;;4809152;29;20078;-67
2022/12/04 05:40:22;;;;;;;9.55;7.00;;;;;;;;;;4809430;29;20594;-68
2022/12/04 05:42:48;;;;;;;7.38;6.60;;;;;;;;;;4808665;29;20062;-67
2022/12/04 05:45:14;;;;;;;8.48;7.05;;;;;;;;;;4809158;29;20130;-68
2022/12/04 05:47:41;;;;;;;13.27;9.15;;;;;;;;;;4808863;29;20100;-67
2022/12/04 05:50:09;;;;;;;18.48;12.70;;;;;;;;;;4809018;29;20499;-67
2022/12/04 05:52:35;;;;;;;26.63;17.95;;;;;;;;;;4808787;29;20085;-67
2022/12/04 05:55:01;;;;;;;27.38;17.38;;;;;;;;;;4808608;29;20100;-67
2022/12/04 05:57:27;;;;;;;29.08;19.40;;;;;;;;;;4808514;29;20074;-67
2022/12/04 05:59:53;;;;;;;30.27;19.88;;;;;;;;;;4808814;29;20050;-67
2022/12/04 06:02:19;;;;;;;33.13;19.83;;;;;;;;;;4808755;29;20172;-67
2022/12/04 06:04:46;;;;;;;30.48;20.63;;;;;;;;;;4808690;29;20080;-67
2022/12/04 06:07:12;;;;;;;32.13;20.85;;;;;;;;;;4808654;29;20034;-67
2022/12/04 06:09:38;;;;;;;28.77;19.77;;;;;;;;;;4808321;29;20043;-67
2022/12/04 06:12:04;;;;;;;28.80;20.02;;;;;;;;;;4808472;29;20058;-67
2022/12/04 06:14:30;;;;;;;27.63;19.13;;;;;;;;;;4808497;29;20042;-67
2022/12/04 06:16:56;;;;;;;32.88;19.27;;;;;;;;;;4808598;29;20050;-67
2022/12/04 06:19:23;;;;;;;27.70;17.20;;;;;;;;;;4808986;29;20467;-67
2022/12/04 06:21:50;;;;;;;25.92;18.13;;;;;;;;;;4808848;29;20122;-68
2022/12/04 06:24:19;;;;;;;25.50;17.50;;;;;;;;;;4808359;29;20051;-68
2022/12/04 06:26:45;;;;;;;27.80;17.92;;;;;;;;;;4808015;29;20041;-68
2022/12/04 06:29:12;;;;;;;24.65;16.83;;;;;;;;;;4808016;29;20043;-68
2022/12/04 06:31:38;;;;;;;26.33;17.17;;;;;;;;;;4808524;29;20043;-68
2022/12/04 06:34:04;;;;;;;27.98;18.48;;;;;;;;;;4808218;29;20078;-68
2022/12/04 06:36:31;;;;;;;26.98;16.73;;;;;;;;;;4807750;29;20055;-68
2022/12/04 06:38:57;;;;;;;24.15;16.95;;;;;;;;;;4808498;29;20054;-67
2022/12/04 06:41:25;;;;;;;25.02;16.55;;;;;;;;;;4808327;29;20086;-67
2022/12/04 06:43:51;;;;;;;23.98;16.58;;;;;;;;;;4808596;29;20051;-67
2022/12/04 06:46:19;;;;;;;25.02;16.55;;;;;;;;;;4807425;29;20077;-67
2022/12/04 06:48:45;;;;;;;23.92;16.48;;;;;;;;;;4807981;29;20035;-67
2022/12/04 06:51:13;;;;;;;22.38;15.48;;;;;;;;;;4807960;29;20046;-67
2022/12/04 06:53:39;;;;;;;23.38;16.17;;;;;;;;;;4807680;29;20046;-67
2022/12/04 06:56:07;;;;;;;27.80;16.83;;;;;;;;;;4807648;29;20046;-67
2022/12/04 06:58:33;;;;;;;22.83;16.80;;;;;;;;;;4807832;29;20047;-67
2022/12/04 07:01:00;;;;;;;23.55;16.77;;;;;;;;;;4807448;29;20069;-67
2022/12/04 07:03:26;;;;;;;26.05;17.13;;;;;;;;;;4807664;29;20058;-67
2022/12/04 07:05:52;;;;;;;24.45;16.67;;;;;;;;;;4807153;29;20449;-67
2022/12/04 07:08:18;;;;;;;23.20;16.67;;;;;;;;;;4807305;29;20100;-67
2022/12/04 07:10:44;;;;;;;25.90;16.75;;;;;;;;;;4807867;29;20051;-67
2022/12/04 07:13:10;;;;;;;23.83;17.08;;;;;;;;;;4807528;29;20058;-67
2022/12/04 07:15:37;;;;;;;25.20;17.02;;;;;;;;;;4807532;29;20043;-67
2022/12/04 07:18:04;;;;;;;26.38;18.05;;;;;;;;;;4808010;29;20487;-67
2022/12/04 07:20:30;;;;;;;27.08;18.33;;;;;;;;;;4807520;29;20079;-67
2022/12/04 07:22:56;;;;;;;28.75;17.48;;;;;;;;;;4807659;29;20065;-67
2022/12/04 07:25:23;;;;;;;28.23;18.60;;;;;;;;;;4807744;29;20035;-67
2022/12/04 07:27:49;;;;;;;26.33;17.88;;;;;;;;;;4807448;29;20123;-67
2022/12/04 07:30:15;;;;;;;26.95;18.00;;;;;;;;;;4807954;29;20043;-67
2022/12/04 07:32:41;;;;;;;23.40;16.85;;;;;;;;;;4807138;29;20093;-67
2022/12/04 07:35:07;;;;;;;24.10;17.45;;;;;;;;;;4807377;29;20522;-67
2022/12/04 07:37:35;;;;;;;24.70;16.77;;;;;;;;;;4806988;29;20141;-67
2022/12/04 07:40:01;;;;;;;27.63;17.42;;;;;;;;;;4802970;29;20131;-67
2022/12/04 07:42:28;;;;;;;24.20;15.55;;;;;;;;;;4806741;29;20184;-67
2022/12/04 07:44:55;;;;;;;27.88;15.68;;;;;;;;;;4807020;29;20043;-67
2022/12/04 07:47:21;;;;;;;24.35;16.85;;;;;;;;;;4806581;29;20203;-67
2022/12/04 07:49:47;;;;;;;24.52;15.55;;;;;;;;;;4806301;29;20042;-67
2022/12/04 07:52:13;;;;;;;23.05;15.85;;;;;;;;;;4789927;30;20146;-66
2022/12/04 07:54:39;;;;;;;21.70;15.25;;;;;;;;;;4796635;29;20046;-63
2022/12/04 07:57:05;;;;;;;25.13;16.08;;;;;;;;;;4790847;29;20063;-66
2022/12/04 07:59:31;;;;;;;22.88;15.48;;;;;;;;;;4795087;29;20039;-67
2022/12/04 08:01:57;;;;;;;21.17;14.75;;;;;;;;;;4810518;29;20079;-67
2022/12/04 08:04:24;;;;;;;25.13;15.48;;;;;;;;;;4805558;29;20077;-67
2022/12/04 08:06:50;;;;;;;21.02;13.88;;;;;;;;;;4788922;30;20067;-67
2022/12/04 08:09:16;;;;;;;20.17;13.95;;;;;;;;;;4789064;30;20047;-67
2022/12/04 08:11:42;;;;;;;20.88;13.82;;;;;;;;;;4789036;30;20105;-67
2022/12/04 08:14:11;;;;;;;20.67;13.35;;;;;;;;;;4798226;29;20578;-67
2022/12/04 08:16:37;;;;;;;23.23;14.02;;;;;;;;;;4804720;29;20046;-67
2022/12/04 08:19:04;;;;;;;20.77;13.38;;;;;;;;;;4802398;29;20070;-67
2022/12/04 08:21:31;;;;;;;23.83;14.15;;;;;;;;;;4791977;30;20054;-67
2022/12/04 08:23:58;;;;;;;21.77;14.07;;;;;;;;;;4802013;29;20080;-67
2022/12/04 08:26:25;;;;;;;21.42;14.35;;;;;;;;;;4810448;29;20137;-67
2022/12/04 08:28:52;;;;;;;22.45;14.23;;;;;;;;;;4809606;29;20052;-67
2022/12/04 08:31:20;;;;;;;21.48;13.02;;;;;;;;;;4819807;29;20054;-68
2022/12/04 08:33:47;;;;;;;23.17;14.07;;;;;;;;;;4803761;29;20077;-68
2022/12/04 08:36:15;;;;;;;20.67;13.15;;;;;;;;;;4810380;29;20050;-67
2022/12/04 08:38:41;;;;;;;21.50;13.02;;;;;;;;;;4817288;29;20077;-68
2022/12/04 08:41:08;;;;;;;19.08;12.80;;;;;;;;;;4808089;29;20511;-67
2022/12/04 08:43:34;;;;;;;20.40;12.63;;;;;;;;;;4792736;29;20133;-68
2022/12/04 08:46:01;;;;;;;21.08;12.63;;;;;;;;;;4798027;29;20058;-68
2022/12/04 08:48:28;;;;;;;21.15;13.13;;;;;;;;;;4809620;29;20046;-68
2022/12/04 08:50:54;;;;;;;20.13;12.43;;;;;;;;;;4809145;29;20067;-68
2022/12/04 08:53:21;;;;;;;20.17;11.95;;;;;;;;;;4804417;29;20057;-68
2022/12/04 08:55:47;;;;;;;19.23;12.63;;;;;;;;;;4807291;29;20109;-68
2022/12/04 08:58:13;;;;;;;19.52;12.30;;;;;;;;;;4809265;29;20079;-68
2022/12/04 09:00:40;;;;;;;18.90;12.25;;;;;;;;;;4809095;29;20043;-68
2022/12/04 09:03:06;;;;;;;17.90;11.40;;;;;;;;;;4808867;29;20519;-68
2022/12/04 09:05:32;;;;;;;17.70;12.18;;;;;;;;;;4808897;29;20095;-68
2022/12/04 09:07:58;;;;;;;18.88;11.70;;;;;;;;;;4809557;29;20050;-68
2022/12/04 09:10:24;;;;;;;18.48;11.73;;;;;;;;;;4808053;29;20112;-68
2022/12/04 09:12:50;;;;;;;16.73;10.93;;;;;;;;;;4808852;29;20051;-68
2022/12/04 09:15:16;;;;;;;15.77;10.57;;;;;;;;;;4808532;29;20051;-67
2022/12/04 09:17:43;;;;;;;17.05;11.50;;;;;;;;;;4808401;29;20054;-68
2022/12/04 09:20:09;;;;;;;18.13;12.38;;;;;;;;;;4800550;29;20051;-68
2022/12/04 09:22:36;;;;;;;19.17;12.50;;;;;;;;;;4803005;29;20118;-67
2022/12/04 09:25:03;;;;;;;20.45;13.15;;;;;;;;;;4808294;29;20046;-68
2022/12/04 09:27:30;;;;;;;19.40;13.10;;;;;;;;;;4809424;29;20035;-68
2022/12/04 09:29:56;;;;;;;20.38;13.52;;;;;;;;;;4825785;29;20470;-68
2022/12/04 09:32:22;;;;;;;20.15;13.70;;;;;;;;;;4807258;29;20093;-68
2022/12/04 09:34:48;;;;;;;21.17;13.75;;;;;;;;;;4808454;29;20081;-68
2022/12/04 09:37:16;;;;;;;20.33;13.27;;;;;;;;;;4812978;29;20034;-68
2022/12/04 09:39:42;;;;;;;20.42;14.30;;;;;;;;;;4822645;29;20043;-68
2022/12/04 09:42:18;;;;;;;21.05;13.18;;;;;;;;;;4808487;29;20460;-68
2022/12/04 09:44:53;;;;;;;19.42;12.00;;;;;;;;;;4803202;29;20130;-68
2022/12/04 09:47:22;;;;;;;16.48;11.48;;;;;;;;;;4800423;29;20519;-68
2022/12/04 09:49:54;;;;;;;19.15;11.32;;;;;;;;;;4816287;29;20519;-68
2022/12/04 09:52:44;;;;;;;17.35;11.40;;;;;;;;;;4810293;29;20070;-68
2022/12/04 09:55:13;;;;;;;18.95;12.95;;;;;;;;;;4802325;29;20047;-69
2022/12/04 09:57:45;;;;;;;18.00;12.55;;;;;;;;;;4812518;29;20054;-69
2022/12/04 10:00:13;;;;;;;19.30;12.60;;;;;;;;;;4800280;29;20053;-67
2022/12/04 10:02:40;;;;;;;19.08;12.75;;;;;;;;;;4807817;29;20062;-67
2022/12/04 10:05:11;;;;;;;20.10;13.43;;;;;;;;;;4805579;29;20543;-69
2022/12/04 10:07:56;;;;;;;21.55;13.20;;;;;;;;;;4795802;29;20051;-69
2022/12/04 10:10:36;;;;;;;23.15;14.20;;;;;;;;;;4796015;29;20072;-68
2022/12/04 10:13:21;;;;;;;19.15;12.45;;;;;;;;;;4803889;29;20540;-68
2022/12/04 10:15:54;;;;;;;19.23;12.77;;;;;;;;;;4797410;29;20099;-68
2022/12/04 10:18:41;;;;;;;21.67;12.95;;;;;;;;;;4805162;29;20050;-68
2022/12/04 10:21:20;;;;;;;20.92;14.48;;;;;;;;;;4801053;29;20097;-69
2022/12/04 10:23:46;;;;;;;19.52;13.80;;;;;;;;;;4799903;29;20043;-69
2022/12/04 10:26:16;;;;;;;21.95;14.98;;;;;;;;;;4793627;29;20047;-71
2022/12/04 10:28:54;;;;;;;30.17;17.45;;;;;;;;;;4799044;29;20085;-68
2022/12/04 10:31:20;;;;;;;27.17;16.02;;;;;;;;;;4799959;29;20051;-69
2022/12/04 10:33:50;;;;;;;22.98;15.38;;;;;;;;;;4798611;29;20058;-70
2022/12/04 10:36:19;;;;;;;24.23;15.48;;;;;;;;;;4781822;29;20138;-69
2022/12/04 10:38:49;;;;;;;24.63;16.13;;;;;;;;;;4803265;29;20046;-69
2022/12/04 10:41:25;;;;;;;26.42;16.52;;;;;;;;;;4805172;29;20050;-70
2022/12/04 10:43:51;;;;;;;22.65;15.15;;;;;;;;;;4797074;29;20047;-69
2022/12/04 10:46:43;;;;;;;24.45;16.98;;;;;;;;;;4794193;29;20059;-69
2022/12/04 10:49:20;;;;;;;23.40;15.93;;;;;;;;;;4788846;29;20123;-69
2022/12/04 10:51:47;;;;;;;27.50;17.85;;;;;;;;;;4796756;29;20055;-68
2022/12/04 10:54:32;;;;;;;20.40;14.15;;;;;;;;;;4798056;29;20071;-69
2022/12/04 10:57:05;;;;;;;20.92;13.48;;;;;;;;;;4798002;29;20049;-69
2022/12/04 10:59:31;;;;;;;19.30;12.98;;;;;;;;;;4795951;29;20142;-70
2022/12/04 11:02:00;;;;;;;18.85;12.45;;;;;;;;;;4796357;29;20051;-70
2022/12/04 11:04:27;;;;;;;14.73;10.60;;;;;;;;;;4789139;29;20071;-69
2022/12/04 11:07:01;;;;;;;18.50;12.10;;;;;;;;;;4789441;30;20698;-70
2022/12/04 11:09:29;;;;;;;13.02;9.20;;;;;;;;;;4796842;29;20046;-70
2022/12/04 11:12:05;;;;;;;20.27;15.23;;;;;;;;;;4807290;29;20047;-69
2022/12/04 11:14:31;;;;;;;15.00;10.50;;;;;;;;;;4806172;29;20050;-69
2022/12/04 11:17:02;;;;;;;15.40;10.05;;;;;;;;;;4805939;29;20042;-69
2022/12/04 11:19:30;;;;;;;20.42;14.05;;;;;;;;;;4801966;29;20046;-69
2022/12/04 11:21:59;;;;;;;25.75;16.42;;;;;;;;;;4799745;29;20135;-69
2022/12/04 11:24:29;;;;;;;21.95;14.68;;;;;;;;;;4798383;29;20054;-71
2022/12/04 11:26:56;;;;;;;18.00;12.50;;;;;;;;;;4802257;29;20051;-70
2022/12/04 11:29:25;;;;;;;19.23;13.18;;;;;;;;;;4804148;29;20504;-69
2022/12/04 11:31:53;;;;;;;22.02;14.65;;;;;;;;;;4800066;29;20043;-69
2022/12/04 11:34:26;;;;;;;21.08;15.30;;;;;;;;;;4799318;29;20123;-69
2022/12/04 11:36:54;;;;;;;22.10;15.80;;;;;;;;;;4797187;29;20059;-69
2022/12/04 11:39:32;;;;;;;24.00;16.95;;;;;;;;;;4800437;29;20121;-69
2022/12/04 11:42:05;;;;;;;22.13;15.13;;;;;;;;;;4799595;29;20059;-69
2022/12/04 11:44:33;;;;;;;18.73;13.88;;;;;;;;;;4803554;29;20053;-69
2022/12/04 11:47:01;;;;;;;19.50;14.20;;;;;;;;;;4791932;29;20063;-70
2022/12/04 11:49:28;;;;;;;21.60;14.77;;;;;;;;;;4796830;29;20047;-70
2022/12/04 11:51:54;;;;;;;27.20;17.42;;;;;;;;;;4797447;29;20103;-70
2022/12/04 11:54:35;;;;;;;25.40;15.13;;;;;;;;;;4811749;29;20079;-71
2022/12/04 11:57:05;;;;;;;26.63;16.40;;;;;;;;;;4798836;29;20134;-71
2022/12/04 11:59:54;;;;;;;24.05;14.07;;;;;;;;;;4799655;29;20074;-71
2022/12/04 12:02:30;;;;;;;31.02;18.08;;;;;;;;;;4771661;29;20046;-71
2022/12/04 12:05:03;;;;;;;22.98;14.88;;;;;;;;;;4800297;29;20050;-71
2022/12/04 12:07:47;;;;;;;33.83;21.60;;;;;;;;;;4800712;29;20042;-71
2022/12/04 12:10:13;;;;;;;20.02;13.27;;;;;;;;;;4790047;29;20487;-70
2022/12/04 12:12:46;;;;;;;23.30;15.85;;;;;;;;;;4809139;29;20108;-70
2022/12/04 12:15:12;;;;;;;20.92;15.25;;;;;;;;;;4798212;29;20057;-70
2022/12/04 12:17:38;;;;;;;21.60;14.98;;;;;;;;;;4797896;29;20047;-70
2022/12/04 12:20:13;;;;;;;12.75;8.93;;;;;;;;;;4800629;29;20112;-70
2022/12/04 12:22:51;;;;;;;19.55;13.10;;;;;;;;;;4798413;29;20058;-70
2022/12/04 12:25:17;;;;;;;18.42;11.88;;;;;;;;;;4803215;29;20080;-70
2022/12/04 12:27:57;;;;;;;16.05;11.45;;;;;;;;;;4806268;29;20042;-70
2022/12/04 12:30:23;;;;;;;11.93;9.52;;;;;;;;;;4807073;29;20055;-70
2022/12/04 12:32:53;;;;;;;12.68;9.20;;;;;;;;;;4797237;29;20061;-70
2022/12/04 12:35:25;;;;;;;11.05;8.15;;;;;;;;;;4803458;29;20053;-70
2022/12/04 12:37:53;;;;;;;13.50;9.73;;;;;;;;;;4796086;29;20126;-70
2022/12/04 12:40:34;;;;;;;14.43;10.70;;;;;;;;;;4803087;29;20051;-70
2022/12/04 12:43:04;;;;;;;11.35;8.23;;;;;;;;;;4788404;29;20063;-71
2022/12/04 12:45:33;;;;;;;8.43;6.50;;;;;;;;;;4796318;29;20043;-71
2022/12/04 12:48:01;;;;;;;12.07;8.75;;;;;;;;;;4813413;29;20054;-71
2022/12/04 12:50:48;;;;;;;9.52;7.43;;;;;;;;;;4808780;29;20074;-71
2022/12/04 12:53:20;;;;;;;9.48;7.10;;;;;;;;;;4800697;29;20058;-70
2022/12/04 12:55:51;;;;;;;9.60;6.85;;;;;;;;;;4802715;29;20071;-70
2022/12/04 12:58:17;;;;;;;9.07;6.55;;;;;;;;;;4803137;29;20047;-71
2022/12/04 13:00:46;;;;;;;8.82;6.68;;;;;;;;;;4794301;29;20078;-71
2022/12/04 13:03:24;;;;;;;13.63;9.05;;;;;;;;;;4805256;29;20046;-72
2022/12/04 13:05:53;;;;;;;11.55;8.65;;;;;;;;;;4811455;29;20086;-72
2022/12/04 13:08:28;;;;;;;8.18;6.60;;;;;;;;;;4809472;29;20100;-72
2022/12/04 13:11:03;;;;;;;15.82;9.73;;;;;;;;;;4807102;29;20045;-72
2022/12/04 13:13:31;;;;;;;9.50;6.07;;;;;;;;;;4804470;29;20071;-71
2022/12/04 13:16:10;;;;;;;8.55;6.35;;;;;;;;;;4799534;29;20122;-72
2022/12/04 13:18:56;;;;;;;6.40;5.10;;;;;;;;;;4803769;29;20107;-72
2022/12/04 13:21:29;;;;;;;10.38;7.63;;;;;;;;;;4802037;29;20046;-71
2022/12/04 13:24:13;;;;;;;7.60;5.85;;;;;;;;;;4798547;29;20082;-71
2022/12/04 13:26:47;;;;;;;121.55;50.85;;;;;;;;;;4794669;29;20045;-71
2022/12/04 13:29:13;;;;;;;362.42;174.98;;;;;;;;;;4801172;29;20047;-71
2022/12/04 13:31:44;;;;;;;212.35;103.93;;;;;;;;;;4804236;29;20051;-72
2022/12/04 13:34:15;;;;;;;153.43;76.57;;;;;;;;;;4792066;29;20051;-70
2022/12/04 13:36:49;;;;;;;417.83;226.77;;;;;;;;;;4798803;29;20055;-71
2022/12/04 13:39:31;;;;;;;199.60;97.15;;;;;;;;;;4794876;29;20275;-71
2022/12/04 13:42:04;;;;;;;189.80;85.90;;;;;;;;;;4800058;29;20050;-71
2022/12/04 13:44:32;;;;;;;41.00;17.55;;;;;;;;;;4790790;29;20507;-72
2022/12/04 13:46:59;;;;;;;30.92;15.32;;;;;;;;;;4795810;29;20071;-71
2022/12/04 13:49:30;;;;;;;397.25;178.25;;;;;;;;;;4797944;29;20043;-71
2022/12/04 13:51:58;;;;;;;69.78;34.58;;;;;;;;;;4791131;29;20070;-71
2022/12/04 13:54:25;;;;;;;414.27;230.73;;;;;;;;;;4801609;29;20039;-70
2022/12/04 13:56:54;;;;;;;70.45;34.25;;;;;;;;;;4804558;29;20105;-70
2022/12/04 13:59:26;;;;;;;23.75;14.65;;;;;;;;;;4798858;29;20050;-71
2022/12/04 14:01:54;;;;;;;64.15;39.33;;;;;;;;;;4802837;29;20054;-70
2022/12/04 14:04:28;;;;;;;57.63;36.08;;;;;;;;;;4804623;29;20043;-70
2022/12/04 14:06:56;;;;;;;412.67;285.65;;;;;;;;;;4800550;29;20129;-71
2022/12/04 14:09:26;;;;;;;165.15;104.18;;;;;;;;;;4801890;29;20054;-70
2022/12/04 14:11:54;;;;;;;23.13;15.82;;;;;;;;;;4797302;29;20061;-71
2022/12/04 14:14:24;;;;;;;19.75;11.88;;;;;;;;;;4799107;29;20134;-70
2022/12/04 14:16:50;;;;;;;114.63;72.90;;;;;;;;;;4804614;29;20167;-70
2022/12/04 14:19:32;;;;;;;19.08;12.32;;;;;;;;;;4796439;29;20051;-69
2022/12/04 14:21:58;;;;;;;43.58;25.48;;;;;;;;;;4792667;29;20047;-69
2022/12/04 14:24:29;;;;;;;142.02;70.72;;;;;;;;;;4798740;29;20051;-70
2022/12/04 14:26:55;;;;;;;;;;;;;;;;;;4799060;29;20050;-70
2022/12/04 14:29:24;;;;;;;404.92;225.32;;;;;;;;;;4800231;29;20301;-71
2022/12/04 14:31:50;;;;;;;22.17;18.20;;;;;;;;;;4795366;29;20051;-70
2022/12/04 14:34:22;;;;;;;76.50;64.78;;;;;;;;;;4798371;29;20146;-70
2022/12/04 14:36:49;;;;;;;19.10;11.50;;;;;;;;;;4798173;29;20046;-70
2022/12/04 14:39:30;;;;;;;20.75;13.15;;;;;;;;;;4793027;29;20049;-70
2022/12/04 14:42:12;;;;;;;27.85;15.10;;;;;;;;;;4803292;29;20099;-70
2022/12/04 14:44:38;;;;;;;19.13;11.20;;;;;;;;;;4802772;29;20053;-70
2022/12/04 14:47:23;;;;;;;72.38;46.83;;;;;;;;;;4803924;29;20542;-70